Time;durP1;ratioP1;P1;durP2;ratioP2;P2;SDS_P1;SDS_P2;PMS_P1;PMS_P2;Temp;Humidity;BMP_temperature;BMP_pressure;BME280_temperature;BME280_humidity;BME280_pressure;Samples;Min_cycle;Max_cycle;Signal;HPM_P1;HPM_P2
2023/11/26 00:00:18;;;;;;;0.70;0.70;;;;;;;1.27;100.00;96496.25;29373;220;63005;-56
2023/11/26 00:00:50;;;;;;;0.70;0.70;;;;;;;1.27;100.00;96493.56;29395;233;63005;-59
2023/11/26 00:01:22;;;;;;;0.68;0.68;;;;;;;1.29;100.00;96502.16;29395;214;63014;-59
2023/11/26 00:01:53;;;;;;;0.70;0.70;;;;;;;1.29;100.00;96504.81;29394;213;64009;-66
2023/11/26 00:02:26;;;;;;;5.60;2.33;;;;;;;1.30;100.00;96501.09;29395;198;63009;-59
2023/11/26 00:02:57;;;;;;;0.70;0.70;;;;;;;1.29;100.00;96507.50;29373;359;63004;-67
2023/11/26 00:03:29;;;;;;;0.70;0.70;;;;;;;1.36;100.00;96501.19;29373;231;63009;-58
2023/11/26 00:04:00;;;;;;;0.70;0.70;;;;;;;1.31;100.00;96499.25;29395;250;63004;-58
2023/11/26 00:04:33;;;;;;;0.70;0.70;;;;;;;1.26;100.00;96507.97;29395;229;63012;-58
2023/11/26 00:05:05;;;;;;;0.70;0.70;;;;;;;1.20;100.00;96510.81;29373;242;63012;-57
2023/11/26 00:05:36;;;;;;;0.60;0.60;;;;;;;1.15;100.00;96508.84;29395;247;63005;-58
2023/11/26 00:06:09;;;;;;;0.70;0.70;;;;;;;1.20;100.00;96503.59;29395;243;63005;-60
2023/11/26 00:06:43;;;;;;;0.62;0.62;;;;;;;1.23;100.00;96510.31;29373;222;63009;-59
2023/11/26 00:07:15;;;;;;;0.80;0.80;;;;;;;1.23;100.00;96508.47;29394;243;64009;-57
2023/11/26 00:07:47;;;;;;;0.70;0.70;;;;;;;1.21;100.00;96507.91;29395;196;63009;-57
2023/11/26 00:08:18;;;;;;;0.80;0.80;;;;;;;1.17;100.00;96509.44;29395;235;63005;-58
2023/11/26 00:08:50;;;;;;;0.70;0.70;;;;;;;1.17;100.00;96514.78;29395;221;63009;-61
2023/11/26 00:09:22;;;;;;;0.70;0.70;;;;;;;1.20;100.00;96516.97;29395;285;63004;-59
2023/11/26 00:09:54;;;;;;;0.70;0.70;;;;;;;1.18;100.00;96510.25;29373;268;63009;-57
2023/11/26 00:10:25;;;;;;;0.70;0.70;;;;;;;1.16;100.00;96513.16;29395;221;63004;-60
2023/11/26 00:10:57;;;;;;;0.70;0.70;;;;;;;1.15;100.00;96516.06;29395;333;63017;-70
2023/11/26 00:11:28;;;;;;;0.80;0.80;;;;;;;1.16;100.00;96518.50;29373;220;63004;-58
2023/11/26 00:12:00;;;;;;;0.85;0.85;;;;;;;1.19;100.00;96518.00;29371;209;64014;-58
2023/11/26 00:12:31;;;;;;;0.70;0.70;;;;;;;1.20;100.00;96514.28;29373;245;63005;-58
2023/11/26 00:13:03;;;;;;;0.60;0.60;;;;;;;1.25;100.00;96518.91;29373;203;63009;-59
2023/11/26 00:13:34;;;;;;;0.60;0.60;;;;;;;1.27;100.00;96514.94;29395;200;63008;-58
2023/11/26 00:14:06;;;;;;;0.68;0.68;;;;;;;1.26;100.00;96507.97;29395;237;63009;-58
2023/11/26 00:14:41;;;;;;;0.70;0.70;;;;;;;1.26;100.00;96513.31;29373;282;63005;-57
2023/11/26 00:15:13;;;;;;;17.58;9.93;;;;;;;1.24;100.00;96509.28;29387;231;65009;-58
2023/11/26 00:15:44;;;;;;;0.80;0.80;;;;;;;1.26;100.00;96517.87;29373;282;63008;-59
2023/11/26 00:16:16;;;;;;;0.60;0.60;;;;;;;1.26;100.00;96518.66;29395;231;63009;-58
2023/11/26 00:16:48;;;;;;;0.75;0.75;;;;;;;1.27;100.00;96520.28;29395;290;63004;-58
2023/11/26 00:17:22;;;;;;;0.70;0.70;;;;;;;1.26;100.00;96515.19;29371;275;64013;-58
2023/11/26 00:17:54;;;;;;;0.60;0.60;;;;;;;1.27;100.00;96520.28;29395;199;63004;-58
2023/11/26 00:18:28;;;;;;;0.70;0.70;;;;;;;1.26;100.00;96524.03;29395;204;63008;-60
2023/11/26 00:18:59;;;;;;;0.70;0.70;;;;;;;1.23;100.00;96519.16;29373;246;63010;-57
2023/11/26 00:19:32;;;;;;;0.70;0.70;;;;;;;1.18;100.00;96524.41;29395;215;63009;-57
2023/11/26 00:20:06;;;;;;;0.70;0.70;;;;;;;1.15;100.00;96516.88;29395;224;63005;-56
2023/11/26 00:20:38;;;;;;;0.60;0.60;;;;;;;1.12;100.00;96516.53;29395;230;63019;-56
2023/11/26 00:21:12;;;;;;;0.70;0.70;;;;;;;1.12;100.00;96528.03;29373;304;63005;-58
2023/11/26 00:21:44;;;;;;;0.75;0.75;;;;;;;1.20;100.00;96524.97;29373;252;63009;-58
2023/11/26 00:22:17;;;;;;;0.60;0.60;;;;;;;1.20;100.00;96521.50;29395;207;63005;-57
2023/11/26 00:22:48;;;;;;;0.70;0.70;;;;;;;1.21;100.00;96523.13;29371;218;64013;-71
2023/11/26 00:23:23;;;;;;;0.60;0.60;;;;;;;1.21;100.00;96529.28;29395;224;63004;-58
2023/11/26 00:23:54;;;;;;;0.70;0.70;;;;;;;1.22;100.00;96530.91;29373;222;63019;-61
2023/11/26 00:24:25;;;;;;;0.70;0.70;;;;;;;1.24;100.00;96531.47;29395;253;63004;-57
2023/11/26 00:24:56;;;;;;;0.60;0.60;;;;;;;1.25;100.00;96526.94;29373;345;63014;-58
2023/11/26 00:25:27;;;;;;;0.70;0.70;;;;;;;1.24;100.00;96531.47;29373;257;63004;-58
2023/11/26 00:25:59;;;;;;;0.60;0.60;;;;;;;1.23;100.00;96524.50;29395;254;63008;-58
2023/11/26 00:26:30;;;;;;;0.70;0.70;;;;;;;1.19;100.00;96528.72;29395;260;63005;-59
2023/11/26 00:27:01;;;;;;;0.70;0.70;;;;;;;1.16;100.00;96534.53;29373;227;63009;-60
2023/11/26 00:27:33;;;;;;;0.68;0.68;;;;;;;1.16;100.00;96529.19;29395;246;63005;-63
2023/11/26 00:28:05;;;;;;;0.70;0.70;;;;;;;1.21;100.00;96531.94;29394;232;64013;-57
2023/11/26 00:28:36;;;;;;;0.75;0.75;;;;;;;1.20;100.00;96530.31;29395;228;63005;-59
2023/11/26 00:29:08;;;;;;;1.55;1.45;;;;;;;1.17;100.00;96530.81;29395;197;63009;-59
2023/11/26 00:29:42;;;;;;;0.70;0.70;;;;;;;1.17;100.00;96530.81;29395;202;63005;-57
2023/11/26 00:30:14;;;;;;;1.42;1.42;;;;;;;1.23;100.00;96529.84;29373;204;63009;-56
2023/11/26 00:30:46;;;;;;;0.70;0.70;;;;;;;1.22;100.00;96538.91;29373;238;63004;-56
2023/11/26 00:31:17;;;;;;;0.62;0.62;;;;;;;1.17;100.00;96540.69;29395;198;63009;-73
2023/11/26 00:31:49;;;;;;;0.60;0.60;;;;;;;1.16;100.00;96534.53;29395;202;63004;-58
2023/11/26 00:32:20;;;;;;;0.68;0.68;;;;;;;1.14;100.00;96535.81;29373;213;63009;-57
2023/11/26 00:32:51;;;;;;;0.60;0.60;;;;;;;1.14;100.00;96531.28;29373;282;63004;-56
2023/11/26 00:33:23;;;;;;;0.60;0.60;;;;;;;1.12;100.00;96533.41;29371;202;64028;-59
2023/11/26 00:33:54;;;;;;;0.70;0.70;;;;;;;1.11;100.00;96537.12;29395;198;63005;-58
2023/11/26 00:34:26;;;;;;;0.60;0.60;;;;;;;1.10;100.00;96540.84;29395;239;63009;-69
2023/11/26 00:34:57;;;;;;;0.70;0.70;;;;;;;1.08;100.00;96537.59;29395;200;63005;-58
2023/11/26 00:35:29;;;;;;;0.70;0.70;;;;;;;1.06;100.00;96545.03;29395;338;63009;-59
2023/11/26 00:36:01;;;;;;;0.60;0.60;;;;;;;1.05;100.00;96538.06;29373;197;63005;-57
2023/11/26 00:36:32;;;;;;;0.70;0.70;;;;;;;1.08;100.00;96542.13;29394;232;64013;-58
2023/11/26 00:37:07;;;;;;;0.70;0.70;;;;;;;1.08;100.00;96540.25;29395;213;63005;-58
2023/11/26 00:37:39;;;;;;;0.60;0.60;;;;;;;1.05;100.00;96548.75;29373;197;63009;-58
2023/11/26 00:38:11;;;;;;;0.80;0.80;;;;;;;1.07;100.00;96551.19;29394;215;64009;-57
2023/11/26 00:38:43;;;;;;;0.70;0.70;;;;;;;1.06;100.00;96539.69;29395;243;63009;-59
2023/11/26 00:39:16;;;;;;;0.60;0.60;;;;;;;1.06;100.00;96547.72;29395;236;63004;-56
2023/11/26 00:39:47;;;;;;;0.70;0.70;;;;;;;1.04;100.00;96547.13;29395;233;63015;-59
2023/11/26 00:40:24;;;;;;;0.62;0.62;;;;;;;1.04;100.00;96547.13;29395;206;63007;-58
2023/11/26 00:40:55;;;;;;;0.70;0.70;;;;;;;1.07;100.00;96552.00;29394;227;64013;-59
2023/11/26 00:41:28;;;;;;;0.60;0.60;;;;;;;1.05;100.00;96551.44;29395;207;63005;-56
2023/11/26 00:42:00;;;;;;;0.70;0.70;;;;;;;1.07;100.00;96560.03;29395;230;63009;-58
2023/11/26 00:42:31;;;;;;;0.70;0.70;;;;;;;1.08;100.00;96542.94;29373;203;63005;-56
2023/11/26 00:43:03;;;;;;;0.70;0.70;;;;;;;1.05;100.00;96548.75;29395;218;63009;-57
2023/11/26 00:43:35;;;;;;;0.62;0.62;;;;;;;1.10;100.00;96546.19;29395;235;63005;-59
2023/11/26 00:44:06;;;;;;;0.75;0.73;;;;;;;1.15;100.00;96554.28;29395;207;63009;-57
2023/11/26 00:44:37;;;;;;;0.60;0.60;;;;;;;1.20;100.00;96545.56;29371;259;64009;-58
2023/11/26 00:45:09;;;;;;;0.70;0.70;;;;;;;1.20;100.00;96553.56;29373;243;63009;-57
2023/11/26 00:45:41;;;;;;;0.70;0.70;;;;;;;1.16;100.00;96550.56;29394;265;64009;-61
2023/11/26 00:46:12;;;;;;;0.62;0.62;;;;;;;1.16;100.00;96553.25;29395;218;63009;-57
2023/11/26 00:46:43;;;;;;;0.60;0.60;;;;;;;1.12;100.00;96551.28;29395;205;63004;-57
2023/11/26 00:47:14;;;;;;;0.73;0.73;;;;;;;1.08;100.00;96550.94;29395;320;63009;-58
2023/11/26 00:47:46;;;;;;;1.08;1.08;;;;;;;1.09;100.00;96560.59;29395;259;63004;-58
2023/11/26 00:48:17;;;;;;;0.70;0.70;;;;;;;1.10;100.00;96551.53;29395;256;63008;-57
2023/11/26 00:48:48;;;;;;;0.60;0.60;;;;;;;1.09;100.00;96555.25;29371;261;64007;-55
2023/11/26 00:49:20;;;;;;;0.70;0.70;;;;;;;1.09;100.00;96555.25;29395;237;63009;-58
2023/11/26 00:49:51;;;;;;;0.60;0.60;;;;;;;1.10;100.00;96556.87;29395;210;63005;-57
2023/11/26 00:50:23;;;;;;;0.60;0.60;;;;;;;1.11;100.00;96558.50;29395;207;63009;-58
2023/11/26 00:50:54;;;;;;;0.70;0.70;;;;;;;1.12;100.00;96560.12;29371;205;64009;-59
2023/11/26 00:51:25;;;;;;;0.60;0.60;;;;;;;1.12;100.00;96560.12;29395;306;63009;-58
2023/11/26 00:51:57;;;;;;;0.80;0.80;;;;;;;1.19;100.00;96559.97;29373;204;63005;-56
2023/11/26 00:52:28;;;;;;;0.60;0.60;;;;;;;1.16;100.00;96553.25;29373;227;63009;-57
2023/11/26 00:53:00;;;;;;;0.60;0.60;;;;;;;1.14;100.00;96558.00;29395;199;63005;-58
2023/11/26 00:53:35;;;;;;;0.60;0.60;;;;;;;1.13;100.00;96567.06;29373;202;63009;-58
2023/11/26 00:54:08;;;;;;;0.70;0.70;;;;;;;1.10;100.00;96559.53;29395;235;63004;-58
2023/11/26 00:54:39;;;;;;;0.60;0.60;;;;;;;1.05;100.00;96554.09;29395;202;63009;-57
2023/11/26 00:55:11;;;;;;;0.70;0.70;;;;;;;1.02;100.00;96559.97;29394;219;64009;-58
2023/11/26 00:55:42;;;;;;;0.70;0.70;;;;;;;1.04;100.00;96555.16;29394;241;64013;-67
2023/11/26 00:56:13;;;;;;;0.80;0.80;;;;;;;1.12;100.00;96560.12;29395;238;63004;-59
2023/11/26 00:56:45;;;;;;;0.60;0.60;;;;;;;1.12;100.00;96560.12;29395;234;63009;-57
2023/11/26 00:57:17;;;;;;;0.70;0.70;;;;;;;1.11;100.00;96569.19;29394;222;64009;-58
2023/11/26 00:57:49;;;;;;;0.60;0.60;;;;;;;1.13;100.00;96566.25;29394;198;64006;-59
2023/11/26 00:58:21;;;;;;;0.70;0.70;;;;;;;1.12;100.00;96564.66;29373;239;63005;-57
2023/11/26 00:58:52;;;;;;;0.70;0.70;;;;;;;1.07;100.00;96565.38;29394;219;64013;-57
2023/11/26 00:59:23;;;;;;;0.60;0.60;;;;;;;1.05;100.00;96569.31;29394;237;64009;-57
2023/11/26 00:59:55;;;;;;;0.70;0.70;;;;;;;1.03;100.00;96566.94;29395;227;63009;-56
2023/11/26 01:00:26;;;;;;;0.60;0.60;;;;;;;1.05;100.00;96572.81;29395;245;63005;-57
2023/11/26 01:00:57;;;;;;;0.70;0.70;;;;;;;1.05;100.00;96572.00;29395;284;63014;-57
2023/11/26 01:01:32;;;;;;;0.70;0.70;;;;;;;1.03;100.00;96569.59;29395;231;63004;-57
2023/11/26 01:02:07;;;;;;;0.60;0.60;;;;;;;1.03;100.00;96577.59;29394;231;64013;-57
2023/11/26 01:02:41;;;;;;;0.68;0.68;;;;;;;1.03;100.00;96577.59;29394;235;64009;-58
2023/11/26 01:03:12;;;;;;;0.70;0.70;;;;;;;1.04;100.00;96578.41;29395;275;63017;-58
2023/11/26 01:03:44;;;;;;;4.25;1.98;;;;;;;1.06;100.00;96581.63;29395;214;63018;-57
2023/11/26 01:04:16;;;;;;;0.60;0.60;;;;;;;1.04;100.00;96581.88;29373;236;63009;-57
2023/11/26 01:04:49;;;;;;;0.70;0.70;;;;;;;1.05;100.00;96580.00;29395;226;63005;-58
2023/11/26 01:05:20;;;;;;;0.70;0.70;;;;;;;1.07;100.00;96578.72;29373;279;63009;-57
2023/11/26 01:05:52;;;;;;;1.60;1.60;;;;;;;1.07;100.00;96578.72;29395;212;63005;-58
2023/11/26 01:06:23;;;;;;;0.60;0.60;;;;;;;1.06;100.00;96581.63;29373;244;63009;-60
2023/11/26 01:06:55;;;;;;;0.70;0.70;;;;;;;1.10;100.00;96580.91;29373;277;63010;-58
2023/11/26 01:07:30;;;;;;;2.05;1.95;;;;;;;1.11;100.00;96579.06;29373;247;63009;-58
2023/11/26 01:08:01;;;;;;;0.70;0.70;;;;;;;1.10;100.00;96586.25;29394;202;64009;-55
2023/11/26 01:08:32;;;;;;;0.60;0.60;;;;;;;1.08;100.00;96591.03;29395;221;63009;-60
2023/11/26 01:09:04;;;;;;;0.60;0.60;;;;;;;1.10;100.00;96588.94;29373;306;63004;-57
2023/11/26 01:09:36;;;;;;;0.70;0.70;;;;;;;1.10;100.00;96594.28;29373;236;63009;-58
2023/11/26 01:10:08;;;;;;;0.70;0.70;;;;;;;1.09;100.00;96589.16;29395;242;63004;-57
2023/11/26 01:10:39;;;;;;;0.70;0.70;;;;;;;1.07;100.00;96589.41;29395;196;63006;-57
2023/11/26 01:11:14;;;;;;;0.70;0.70;;;;;;;1.06;100.00;96592.31;29373;281;63004;-57
2023/11/26 01:11:45;;;;;;;0.65;0.65;;;;;;;1.04;100.00;96584.53;29373;202;63023;-57
2023/11/26 01:12:16;;;;;;;0.65;0.65;;;;;;;1.02;100.00;96589.34;29373;203;63005;-57
2023/11/26 01:12:48;;;;;;;0.62;0.62;;;;;;;1.02;100.00;96589.34;29373;225;63009;-57
2023/11/26 01:13:20;;;;;;;0.60;0.60;;;;;;;0.99;100.00;96595.16;29394;211;63997;-56
2023/11/26 01:13:52;;;;;;;0.70;0.70;;;;;;;0.97;100.00;96583.91;29373;198;63019;-56
2023/11/26 01:14:24;;;;;;;0.60;0.60;;;;;;;0.97;100.00;96591.91;29395;218;63005;-57
2023/11/26 01:14:56;;;;;;;0.60;0.60;;;;;;;0.95;100.00;96586.81;29395;237;63009;-56
2023/11/26 01:15:27;;;;;;;0.70;0.70;;;;;;;0.95;100.00;96602.03;29373;199;63007;-57
2023/11/26 01:15:59;;;;;;;0.60;0.60;;;;;;;0.96;100.00;96598.31;29395;220;63009;-58
2023/11/26 01:16:30;;;;;;;0.60;0.60;;;;;;;0.99;100.00;96595.97;29373;337;63004;-57
2023/11/26 01:17:01;;;;;;;0.70;0.70;;;;;;;1.02;100.00;96594.69;29373;223;63004;-57
2023/11/26 01:17:35;;;;;;;0.60;0.60;;;;;;;1.05;100.00;96596.03;29395;209;63004;-58
2023/11/26 01:18:06;;;;;;;0.70;0.70;;;;;;;1.04;100.00;96603.25;29395;209;63015;-57
2023/11/26 01:18:39;;;;;;;0.80;0.80;;;;;;;1.06;100.00;96603.81;29394;218;64008;-58
2023/11/26 01:19:10;;;;;;;0.70;0.70;;;;;;;1.07;100.00;96605.44;29395;198;63009;-56
2023/11/26 01:19:42;;;;;;;0.70;0.70;;;;;;;1.08;100.00;96607.06;29373;194;63005;-58
2023/11/26 01:20:13;;;;;;;0.70;0.70;;;;;;;1.09;100.00;96603.34;29373;247;63009;-58
2023/11/26 01:20:44;;;;;;;0.60;0.60;;;;;;;1.07;100.00;96599.28;29373;210;63005;-57
2023/11/26 01:21:17;;;;;;;0.70;0.70;;;;;;;1.05;100.00;96596.84;29395;221;63018;-57
2023/11/26 01:21:49;;;;;;;0.60;0.60;;;;;;;1.03;100.00;96600.84;29395;227;63014;-57
2023/11/26 01:22:20;;;;;;;0.60;0.60;;;;;;;1.02;100.00;96608.03;29395;247;63009;-57
2023/11/26 01:22:53;;;;;;;0.70;0.70;;;;;;;1.00;100.00;96602.13;29373;242;63011;-57
2023/11/26 01:23:24;;;;;;;0.70;0.70;;;;;;;0.98;100.00;96606.91;29395;202;63009;-57
2023/11/26 01:23:55;;;;;;;0.60;0.60;;;;;;;0.97;100.00;96602.59;29394;311;64009;-58
2023/11/26 01:24:27;;;;;;;0.60;0.60;;;;;;;0.99;100.00;96608.53;29395;258;63009;-58
2023/11/26 01:25:00;;;;;;;0.60;0.60;;;;;;;1.00;100.00;96604.81;29373;336;63014;-58
2023/11/26 01:25:31;;;;;;;0.60;0.60;;;;;;;1.00;100.00;96610.16;29373;202;63008;-58
2023/11/26 01:26:04;;;;;;;0.62;0.62;;;;;;;1.01;100.00;96601.09;29395;227;63004;-57
2023/11/26 01:26:35;;;;;;;0.70;0.70;;;;;;;1.01;100.00;96606.44;29395;247;63016;-58
2023/11/26 01:27:07;;;;;;;0.65;0.65;;;;;;;1.01;100.00;96601.09;29373;244;63005;-57
2023/11/26 01:27:38;;;;;;;0.70;0.70;;;;;;;1.02;100.00;96602.72;29395;199;63009;-58
2023/11/26 01:28:10;;;;;;;0.70;0.70;;;;;;;1.08;100.00;96606.25;29373;256;63005;-58
2023/11/26 01:28:41;;;;;;;0.60;0.60;;;;;;;1.07;100.00;96605.44;29395;196;63019;-58
2023/11/26 01:29:12;;;;;;;0.55;0.55;;;;;;;1.08;100.00;96607.06;29371;235;64009;-57
2023/11/26 01:29:44;;;;;;;0.70;0.70;;;;;;;1.06;100.00;96606.50;29373;213;63009;-58
2023/11/26 01:30:16;;;;;;;0.68;0.68;;;;;;;1.05;100.00;96604.06;29373;281;63004;-57
2023/11/26 01:30:47;;;;;;;0.60;0.60;;;;;;;1.02;100.00;96613.41;29395;202;63009;-57
2023/11/26 01:31:19;;;;;;;0.60;0.60;;;;;;;0.99;100.00;96605.84;29373;238;63004;-57
2023/11/26 01:31:50;;;;;;;0.60;0.60;;;;;;;0.99;100.00;96608.53;29373;236;63009;-57
2023/11/26 01:32:22;;;;;;;0.70;0.70;;;;;;;1.04;100.00;96610.47;29395;236;63004;-58
2023/11/26 01:32:53;;;;;;;0.70;0.70;;;;;;;1.07;100.00;96609.97;29395;224;63008;-56
2023/11/26 01:33:25;;;;;;;0.68;0.68;;;;;;;1.05;100.00;96614.75;29395;241;63008;-58
2023/11/26 01:33:56;;;;;;;0.62;0.62;;;;;;;1.04;100.00;96613.94;29394;197;64014;-58
2023/11/26 01:34:28;;;;;;;0.60;0.60;;;;;;;1.05;100.00;96612.06;29394;207;64009;-57
2023/11/26 01:34:59;;;;;;;0.65;0.65;;;;;;;1.04;100.00;96611.25;29395;262;63009;-58
2023/11/26 01:35:30;;;;;;;0.65;0.65;;;;;;;1.10;100.00;96612.97;29395;203;63005;-57
2023/11/26 01:36:08;;;;;;;0.60;0.60;;;;;;;1.15;100.00;96613.06;29395;228;63009;-58
2023/11/26 01:36:41;;;;;;;0.70;0.70;;;;;;;1.16;100.00;96613.88;29395;209;63012;-58
2023/11/26 01:37:13;;;;;;;0.60;0.60;;;;;;;1.17;100.00;96620.84;29395;219;63009;-56
2023/11/26 01:37:44;;;;;;;0.70;0.70;;;;;;;1.19;100.00;96619.56;29372;271;64004;-64
2023/11/26 01:38:15;;;;;;;0.68;0.68;;;;;;;1.27;100.00;96619.19;29395;236;63009;-57
2023/11/26 01:38:46;;;;;;;0.60;0.60;;;;;;;1.21;100.00;96616.66;29395;197;63004;-57
2023/11/26 01:39:18;;;;;;;0.70;0.70;;;;;;;1.17;100.00;96616.31;29394;226;64013;-57
2023/11/26 01:39:50;;;;;;;0.70;0.70;;;;;;;1.16;100.00;96613.88;29395;225;63004;-61
2023/11/26 01:40:21;;;;;;;0.57;0.57;;;;;;;1.13;100.00;96612.50;29373;201;63008;-56
2023/11/26 01:40:52;;;;;;;0.70;0.70;;;;;;;1.16;100.00;96614.69;29395;203;63005;-57
2023/11/26 01:41:24;;;;;;;0.60;0.60;;;;;;;1.16;100.00;96620.03;29395;288;63009;-57
2023/11/26 01:41:55;;;;;;;0.60;0.60;;;;;;;1.15;100.00;96614.94;29394;244;64009;-58
2023/11/26 01:42:26;;;;;;;0.60;0.60;;;;;;;1.14;100.00;96611.47;29395;203;63021;-58
2023/11/26 01:42:57;;;;;;;0.70;0.70;;;;;;;1.16;100.00;96612.03;29395;294;63005;-57
2023/11/26 01:43:29;;;;;;;0.70;0.70;;;;;;;1.14;100.00;96616.00;29373;227;63009;-57
2023/11/26 01:44:01;;;;;;;0.60;0.60;;;;;;;1.09;100.00;96619.38;29395;203;63005;-57
2023/11/26 01:44:33;;;;;;;0.60;0.60;;;;;;;1.05;100.00;96622.75;29373;282;63009;-58
2023/11/26 01:45:07;;;;;;;0.68;0.68;;;;;;;1.03;100.00;96620.34;29373;265;63004;-58
2023/11/26 01:45:39;;;;;;;0.60;0.60;;;;;;;1.08;100.00;96624.97;29395;212;63009;-58
2023/11/26 01:46:12;;;;;;;0.60;0.60;;;;;;;1.06;100.00;96622.53;29395;214;63004;-57
2023/11/26 01:46:44;;;;;;;1.20;1.20;;;;;;;1.10;100.00;96615.66;29394;218;64013;-57
2023/11/26 01:47:17;;;;;;;0.60;0.60;;;;;;;1.14;100.00;96622.16;29395;252;63004;-57
2023/11/26 01:47:49;;;;;;;0.70;0.70;;;;;;;1.16;100.00;96624.59;29394;257;64013;-60
2023/11/26 01:48:20;;;;;;;0.90;0.90;;;;;;;1.19;100.00;96619.56;29395;223;63004;-59
2023/11/26 01:48:52;;;;;;;0.65;0.65;;;;;;;1.19;100.00;96624.91;29395;212;63009;-61
2023/11/26 01:49:24;;;;;;;0.80;0.80;;;;;;;1.23;100.00;96626.06;29395;197;63005;-58
2023/11/26 01:49:56;;;;;;;0.70;0.70;;;;;;;1.24;100.00;96625.00;29395;221;63009;-56
2023/11/26 01:50:28;;;;;;;0.70;0.70;;;;;;;1.24;100.00;96630.34;29395;300;63005;-57
2023/11/26 01:50:59;;;;;;;0.68;0.68;;;;;;;1.24;100.00;96635.69;29395;285;63009;-56
2023/11/26 01:51:32;;;;;;;0.60;0.60;;;;;;;1.20;100.00;96625.72;29394;197;64009;-58
2023/11/26 01:52:09;;;;;;;0.60;0.60;;;;;;;1.15;100.00;96629.12;29395;239;63019;-57
2023/11/26 01:52:40;;;;;;;0.60;0.60;;;;;;;1.14;100.00;96632.84;29395;197;63000;-58
2023/11/26 01:53:12;;;;;;;0.60;0.60;;;;;;;1.10;100.00;96633.53;29395;202;63009;-58
2023/11/26 01:53:48;;;;;;;0.70;0.70;;;;;;;1.07;100.00;96626.81;29395;207;63004;-57
2023/11/26 01:54:20;;;;;;;0.70;0.70;;;;;;;1.07;100.00;96632.16;29395;207;63009;-57
2023/11/26 01:54:52;;;;;;;0.70;0.70;;;;;;;1.03;100.00;96628.38;29394;235;64009;-58
2023/11/26 01:55:25;;;;;;;0.70;0.70;;;;;;;1.01;100.00;96638.47;29395;212;63008;-57
2023/11/26 01:55:56;;;;;;;0.60;0.60;;;;;;;1.04;100.00;96637.97;29395;238;63005;-56
2023/11/26 01:56:28;;;;;;;0.60;0.60;;;;;;;1.06;100.00;96625.19;29395;233;63009;-56
2023/11/26 01:57:02;;;;;;;0.70;0.70;;;;;;;1.07;100.00;96629.50;29395;237;63010;-56
2023/11/26 01:57:34;;;;;;;0.57;0.57;;;;;;;1.12;100.00;96634.94;29395;197;63009;-58
2023/11/26 01:58:05;;;;;;;0.70;0.70;;;;;;;1.19;100.00;96630.25;29395;241;63005;-56
2023/11/26 01:58:37;;;;;;;0.70;0.70;;;;;;;1.16;100.00;96630.75;29395;225;63018;-57
2023/11/26 01:59:08;;;;;;;0.70;0.70;;;;;;;1.14;100.00;96632.84;29395;224;63005;-58
2023/11/26 01:59:40;;;;;;;0.70;0.70;;;;;;;1.17;100.00;96632.34;29373;231;63023;-57
2023/11/26 02:00:17;;;;;;;0.73;0.73;;;;;;;1.15;100.00;96629.12;29394;198;64009;-58
2023/11/26 02:00:50;;;;;;;0.70;0.70;;;;;;;1.17;100.00;96629.69;29395;226;63009;-58
2023/11/26 02:01:22;;;;;;;0.60;0.60;;;;;;;1.21;100.00;96633.50;29395;239;63000;-56
2023/11/26 02:01:55;;;;;;;0.60;0.60;;;;;;;1.19;100.00;96627.59;29373;214;63009;-57
2023/11/26 02:02:26;;;;;;;0.50;0.50;;;;;;;1.16;100.00;96632.59;29373;396;63004;-57
2023/11/26 02:02:57;;;;;;;0.68;0.68;;;;;;;1.13;100.00;96636.56;29373;294;63008;-58
2023/11/26 02:03:28;;;;;;;0.70;0.70;;;;;;;1.16;100.00;96630.75;29373;232;63005;-57
2023/11/26 02:04:00;;;;;;;0.70;0.70;;;;;;;1.16;100.00;96636.06;29373;305;63009;-57
2023/11/26 02:04:31;;;;;;;0.60;0.60;;;;;;;1.14;100.00;96630.16;29373;199;63005;-57
2023/11/26 02:05:03;;;;;;;0.80;0.80;;;;;;;1.10;100.00;96630.88;29373;277;63009;-59
2023/11/26 02:05:35;;;;;;;0.70;0.70;;;;;;;1.06;100.00;96635.88;29371;329;64009;-57
2023/11/26 02:06:08;;;;;;;0.68;0.68;;;;;;;1.08;100.00;96633.78;29373;245;63009;-56
2023/11/26 02:06:40;;;;;;;0.70;0.70;;;;;;;1.07;100.00;96629.50;29395;213;63005;-57
2023/11/26 02:07:12;;;;;;;0.93;0.93;;;;;;;1.06;100.00;96633.22;29373;220;63009;-57
2023/11/26 02:07:44;;;;;;;0.62;0.62;;;;;;;1.08;100.00;96633.78;29395;206;63004;-62
2023/11/26 02:08:16;;;;;;;0.60;0.60;;;;;;;1.17;100.00;96635.03;29373;211;63009;-58
2023/11/26 02:08:48;;;;;;;0.60;0.60;;;;;;;1.14;100.00;96638.19;29395;214;63004;-57
2023/11/26 02:09:20;;;;;;;0.60;0.60;;;;;;;1.15;100.00;96639.00;29395;295;63009;-57
2023/11/26 02:09:53;;;;;;;0.65;0.65;;;;;;;1.13;100.00;96636.56;29373;228;63004;-58
2023/11/26 02:10:24;;;;;;;0.60;0.60;;;;;;;1.11;100.00;96633.31;29395;235;63008;-56
2023/11/26 02:10:55;;;;;;;0.70;0.70;;;;;;;1.05;100.00;96634.25;29394;295;64008;-58
2023/11/26 02:11:26;;;;;;;0.70;0.70;;;;;;;1.02;100.00;96629.41;29395;218;63009;-56
2023/11/26 02:11:58;;;;;;;0.60;0.60;;;;;;;0.99;100.00;96641.41;29395;233;63005;-57
2023/11/26 02:12:29;;;;;;;0.70;0.70;;;;;;;1.04;100.00;96637.19;29395;229;63009;-56
2023/11/26 02:13:06;;;;;;;0.70;0.70;;;;;;;1.09;100.00;96639.94;29395;227;63005;-57
2023/11/26 02:13:54;;;;;;;0.60;0.60;;;;;;;1.05;100.00;96634.25;29395;235;63009;-56
2023/11/26 02:14:26;;;;;;;0.60;0.60;;;;;;;1.02;100.00;96642.78;29373;311;63015;-59
2023/11/26 02:14:58;;;;;;;0.65;0.65;;;;;;;0.98;100.00;96645.13;29373;216;63009;-57
2023/11/26 02:15:30;;;;;;;0.60;0.60;;;;;;;0.96;100.00;96635.72;29373;332;63008;-55
2023/11/26 02:16:03;;;;;;;0.70;0.70;;;;;;;0.93;100.00;96642.34;29371;263;64013;-57
2023/11/26 02:16:35;;;;;;;0.68;0.68;;;;;;;0.90;100.00;96637.47;29373;238;63004;-59
2023/11/26 02:17:06;;;;;;;0.60;0.60;;;;;;;0.89;100.00;96633.19;29373;237;63008;-57
2023/11/26 02:17:37;;;;;;;0.70;0.70;;;;;;;0.87;100.00;96637.94;29395;223;63004;-57
2023/11/26 02:18:08;;;;;;;0.60;0.60;;;;;;;0.86;100.00;96640.84;29395;256;63009;-56
2023/11/26 02:18:41;;;;;;;0.70;0.70;;;;;;;0.83;100.00;96638.66;29373;266;63005;-57
2023/11/26 02:19:34;;;;;;;0.70;0.70;;;;;;;0.83;100.00;96635.97;29394;275;64000;-57
2023/11/26 02:20:12;;;;;;;0.70;0.70;;;;;;;0.87;100.00;96637.94;29395;324;63016;-56
2023/11/26 02:20:44;;;;;;;0.70;0.70;;;;;;;0.85;100.00;96639.22;29395;202;63009;-56
2023/11/26 02:21:16;;;;;;;0.70;0.70;;;;;;;0.83;100.00;96635.97;29394;222;64009;-57
2023/11/26 02:21:47;;;;;;;0.60;0.60;;;;;;;0.83;100.00;96644.00;29395;196;63009;-57
2023/11/26 02:22:18;;;;;;;0.50;0.50;;;;;;;0.83;100.00;96641.31;29395;251;63004;-57
2023/11/26 02:22:50;;;;;;;0.60;0.60;;;;;;;0.79;100.00;96638.31;29395;237;63009;-57
2023/11/26 02:23:21;;;;;;;0.70;0.70;;;;;;;0.79;100.00;96642.84;29394;219;64009;-57
2023/11/26 02:23:54;;;;;;;0.70;0.70;;;;;;;0.77;100.00;96643.06;29395;227;63009;-57
2023/11/26 02:24:30;;;;;;;0.60;0.60;;;;;;;0.75;100.00;96639.00;29395;227;63004;-56
2023/11/26 02:25:01;;;;;;;0.70;0.70;;;;;;;0.72;100.00;96639.47;29395;246;63018;-55
2023/11/26 02:25:33;;;;;;;0.60;0.60;;;;;;;0.68;100.00;96643.69;29373;226;63005;-55
2023/11/26 02:26:06;;;;;;;0.60;0.60;;;;;;;0.65;100.00;96636.97;29395;213;63014;-56
2023/11/26 02:26:37;;;;;;;0.60;0.60;;;;;;;0.63;100.00;96642.56;29395;203;63005;-57
2023/11/26 02:27:08;;;;;;;0.62;0.62;;;;;;;0.62;100.00;96635.59;29395;245;63009;-57
2023/11/26 02:27:40;;;;;;;0.65;0.65;;;;;;;0.61;100.00;96639.31;29373;208;63005;-57
2023/11/26 02:28:11;;;;;;;0.60;0.60;;;;;;;0.60;100.00;96635.00;29395;238;63009;-57
2023/11/26 02:28:43;;;;;;;0.70;0.70;;;;;;;0.58;100.00;96639.78;29394;197;64009;-56
2023/11/26 02:29:17;;;;;;;0.70;0.70;;;;;;;0.57;100.00;96640.81;29373;202;63009;-57
2023/11/26 02:29:49;;;;;;;0.70;0.70;;;;;;;0.56;100.00;96639.19;29373;221;63004;-56
2023/11/26 02:30:20;;;;;;;0.60;0.60;;;;;;;0.55;100.00;96639.44;29395;251;63009;-56
2023/11/26 02:30:52;;;;;;;0.70;0.70;;;;;;;0.52;100.00;96640.72;29395;210;63004;-55
2023/11/26 02:31:23;;;;;;;0.60;0.60;;;;;;;0.51;100.00;96635.59;29373;241;63009;-56
2023/11/26 02:31:54;;;;;;;0.60;0.60;;;;;;;0.48;100.00;96639.56;29373;226;63004;-56
2023/11/26 02:32:25;;;;;;;0.60;0.60;;;;;;;0.47;100.00;96645.94;29395;219;63008;-56
2023/11/26 02:32:58;;;;;;;0.60;0.60;;;;;;;0.47;100.00;96642.44;29395;229;63005;-57